Time;durP1;ratioP1;P1;durP2;ratioP2;P2;SDS_P1;SDS_P2;PMS_P1;PMS_P2;Temp;Humidity;BMP_temperature;BMP_pressure;BME280_temperature;BME280_humidity;BME280_pressure;Samples;Min_cycle;Max_cycle;Signal;HPM_P1;HPM_P2
2021/07/10 00:04:23;;;;;;;3.63;3.33;;;;;;;13.99;90.85;96719.28;5120974;57;20668;-71
2021/07/10 00:09:26;;;;;;;3.60;3.30;;;;;;;13.95;90.86;96717.94;5120928;57;20122;-71
2021/07/10 00:14:28;;;;;;;4.22;3.88;;;;;;;13.93;90.32;96703.75;5120959;57;20144;-71
2021/07/10 00:19:31;;;;;;;4.30;3.92;;;;;;;13.89;91.23;96709.47;5120624;57;20131;-71
2021/07/10 00:24:34;;;;;;;3.33;3.03;;;;;;;13.81;90.88;96699.97;5121960;57;20167;-72
2021/07/10 00:29:36;;;;;;;3.20;3.00;;;;;;;13.79;90.20;96694.13;5112079;57;20122;-71
2021/07/10 00:34:39;;;;;;;3.25;2.95;;;;;;;13.68;90.78;96688.34;5112346;57;20157;-70
2021/07/10 00:39:41;;;;;;;5.63;3.95;;;;;;;13.62;90.82;96698.56;5120795;57;20131;-70
2021/07/10 00:44:43;;;;;;;4.15;3.75;;;;;;;13.59;90.63;96689.16;5120383;57;20139;-69
2021/07/10 00:49:46;;;;;;;3.58;3.28;;;;;;;13.65;90.70;96675.41;5120706;57;20164;-71
2021/07/10 00:54:48;;;;;;;2.67;2.47;;;;;;;13.68;90.24;96675.19;5119874;57;20140;-71
2021/07/10 00:59:51;;;;;;;3.00;2.78;;;;;;;13.62;90.08;96676.34;5120737;57;20140;-70
2021/07/10 01:04:53;;;;;;;2.97;2.78;;;;;;;13.39;90.73;96677.88;5120693;57;20131;-69
2021/07/10 01:09:56;;;;;;;3.13;2.92;;;;;;;13.35;90.68;96677.28;5120442;57;20123;-69
2021/07/10 01:14:59;;;;;;;4.57;3.25;;;;;;;13.35;91.15;96668.19;5120208;57;20131;-70
2021/07/10 01:20:13;;;;;;;4.03;3.63;;;;;;;13.36;90.66;96664.19;5120186;57;20561;-70
2021/07/10 01:25:19;;;;;;;3.47;3.25;;;;;;;13.29;90.72;96656.97;5119801;57;20153;-70
2021/07/10 01:30:22;;;;;;;5.30;3.67;;;;;;;13.23;90.90;96655.31;5120482;57;20712;-70
2021/07/10 01:35:24;;;;;;;4.32;3.33;;;;;;;13.26;90.73;96637.72;5119669;57;20140;-71
2021/07/10 01:40:27;;;;;;;5.35;3.67;;;;;;;13.26;90.28;96634.94;5120118;57;20570;-70
2021/07/10 01:45:33;;;;;;;6.28;3.88;;;;;;;13.24;90.25;96634.66;5120674;57;20144;-70
2021/07/10 01:50:37;;;;;;;7.03;3.65;;;;;;;13.13;90.18;96629.63;5119937;57;20157;-69
2021/07/10 01:55:39;;;;;;;4.75;3.53;;;;;;;13.01;90.30;96621.50;5119490;57;20140;-70
2021/07/10 02:00:44;;;;;;;5.40;3.90;;;;;;;12.93;90.81;96630.16;5120085;57;20139;-70
2021/07/10 02:05:46;;;;;;;4.25;3.85;;;;;;;12.90;91.04;96628.34;5119184;57;20192;-70
2021/07/10 02:10:49;;;;;;;4.40;3.63;;;;;;;12.84;91.03;96615.59;5119813;57;20127;-70
2021/07/10 02:15:51;;;;;;;4.50;3.90;;;;;;;12.77;90.95;96599.28;5119582;57;20127;-69
2021/07/10 02:20:53;;;;;;;4.93;4.43;;;;;;;12.74;90.85;96603.75;5119559;57;20166;-70
2021/07/10 02:25:56;;;;;;;7.03;3.60;;;;;;;12.76;90.93;96600.50;5127554;57;20144;-70
2021/07/10 02:30:59;;;;;;;3.90;3.50;;;;;;;12.66;90.64;96602.59;5135911;57;20206;-69
2021/07/10 02:36:01;;;;;;;4.13;3.72;;;;;;;12.68;90.48;96597.34;5120080;57;20637;-70
2021/07/10 02:41:03;;;;;;;5.03;4.43;;;;;;;12.58;90.69;96584.72;5119062;57;20623;-70
2021/07/10 02:46:06;;;;;;;5.65;4.43;;;;;;;12.70;90.74;96581.00;5118665;57;20139;-70
2021/07/10 02:51:08;;;;;;;4.95;3.88;;;;;;;12.78;90.73;96573.84;5118580;57;20131;-71
2021/07/10 02:56:11;;;;;;;3.63;3.30;;;;;;;12.60;90.64;96562.84;5118502;57;20135;-70
2021/07/10 03:01:13;;;;;;;6.38;4.13;;;;;;;12.46;91.01;96565.56;5118656;57;20131;-71
2021/07/10 03:06:16;;;;;;;3.92;3.45;;;;;;;12.49;91.06;96575.69;5118535;58;20151;-70
2021/07/10 03:11:18;;;;;;;6.00;3.88;;;;;;;12.48;91.37;96574.94;5119900;57;20561;-70
2021/07/10 03:16:21;;;;;;;10.20;3.65;;;;;;;12.60;91.27;96573.94;5110735;57;20127;-71
2021/07/10 03:21:24;;;;;;;4.40;3.78;;;;;;;12.62;90.31;96568.69;5122098;57;20179;-71
2021/07/10 03:26:26;;;;;;;4.97;3.53;;;;;;;12.46;90.87;96576.63;5121386;57;20140;-70
2021/07/10 03:31:29;;;;;;;3.85;3.45;;;;;;;12.48;90.90;96579.72;5112970;57;20699;-71
2021/07/10 03:36:31;;;;;;;3.92;3.55;;;;;;;12.45;90.76;96586.19;5121455;57;20187;-71
2021/07/10 03:41:33;;;;;;;3.65;3.30;;;;;;;12.53;89.80;96592.94;5121406;57;20135;-71
2021/07/10 03:46:36;;;;;;;3.30;3.08;;;;;;;12.55;90.60;96571.06;5121273;57;20257;-70
2021/07/10 03:51:38;;;;;;;3.58;3.28;;;;;;;12.60;90.50;96568.41;5122574;57;20162;-71
2021/07/10 03:56:40;;;;;;;8.32;3.42;;;;;;;12.58;90.25;96572.88;5121191;57;20140;-71
2021/07/10 04:01:45;;;;;;;4.15;3.60;;;;;;;12.69;90.04;96568.34;5121175;57;20118;-71
2021/07/10 04:06:47;;;;;;;3.63;3.33;;;;;;;12.71;90.23;96554.03;5120752;57;20135;-70
2021/07/10 04:11:50;;;;;;;4.15;3.50;;;;;;;12.85;90.07;96551.31;5120995;57;20127;-70
2021/07/10 04:16:52;;;;;;;7.43;3.72;;;;;;;12.82;90.30;96557.78;5120828;57;20135;-70
2021/07/10 04:21:55;;;;;;;5.63;3.60;;;;;;;13.05;90.17;96561.84;5112137;57;20127;-70
2021/07/10 04:26:57;;;;;;;3.38;3.08;;;;;;;13.21;89.58;96552.31;5120495;57;20704;-71
2021/07/10 04:32:00;;;;;;;3.40;3.20;;;;;;;13.33;89.30;96554.09;5120654;57;20136;-69
2021/07/10 04:37:02;;;;;;;3.28;2.85;;;;;;;13.47;89.30;96556.16;5120784;57;20114;-69
2021/07/10 04:42:05;;;;;;;3.15;2.88;;;;;;;13.66;89.04;96565.84;5120550;57;20167;-69
2021/07/10 04:47:09;;;;;;;2.75;2.55;;;;;;;13.86;88.27;96556.88;5120197;57;20158;-70
2021/07/10 04:52:11;;;;;;;3.10;2.90;;;;;;;13.97;88.34;96562.63;5120428;57;20145;-69
2021/07/10 04:57:13;;;;;;;3.05;2.78;;;;;;;14.13;88.54;96564.94;5120244;57;20703;-70
2021/07/10 05:02:16;;;;;;;3.40;3.10;;;;;;;14.30;87.97;96561.19;5120280;57;20606;-70
2021/07/10 05:07:22;;;;;;;3.17;2.97;;;;;;;14.51;88.17;96564.03;5120290;57;20241;-69
2021/07/10 05:12:24;;;;;;;3.22;2.85;;;;;;;14.66;88.33;96548.84;5120219;57;20122;-69
2021/07/10 05:17:26;;;;;;;6.07;3.10;;;;;;;14.86;88.18;96548.88;5119650;57;20140;-69
2021/07/10 05:22:29;;;;;;;3.33;3.03;;;;;;;15.07;88.10;96546.91;5119971;57;20135;-70
2021/07/10 05:27:31;;;;;;;2.90;2.65;;;;;;;15.22;88.12;96564.28;5119535;57;20118;-70
2021/07/10 05:32:33;;;;;;;2.80;2.60;;;;;;;15.46;87.63;96562.09;5119807;57;20130;-69
2021/07/10 05:37:36;;;;;;;5.97;3.88;;;;;;;15.64;87.73;96566.59;5119324;57;20131;-69
2021/07/10 05:42:39;;;;;;;3.85;3.42;;;;;;;15.94;87.19;96567.16;5119896;57;20122;-70
2021/07/10 05:47:42;;;;;;;6.88;4.03;;;;;;;16.17;87.00;96560.56;5111043;57;20148;-70
2021/07/10 05:52:44;;;;;;;7.30;6.05;;;;;;;16.13;87.35;96560.75;5120011;57;20678;-69
2021/07/10 05:57:46;;;;;;;8.40;5.85;;;;;;;16.37;87.46;96566.06;5119846;57;20213;-69
2021/07/10 06:02:49;;;;;;;8.60;7.07;;;;;;;16.59;87.25;96577.41;5119493;57;20126;-70
2021/07/10 06:07:54;;;;;;;9.55;6.32;;;;;;;16.91;87.00;96587.28;5119382;57;20136;-70
2021/07/10 06:12:57;;;;;;;9.95;7.22;;;;;;;16.88;87.19;96587.50;5119747;57;20135;-71
2021/07/10 06:17:59;;;;;;;10.48;7.45;;;;;;;17.19;85.08;96584.63;5119423;57;20127;-70
2021/07/10 06:23:05;;;;;;;8.02;6.93;;;;;;;17.68;83.72;96577.78;5110824;57;20144;-70
2021/07/10 06:28:07;;;;;;;8.60;6.80;;;;;;;17.99;81.92;96574.81;5118827;57;20683;-70
2021/07/10 06:33:10;;;;;;;10.40;7.50;;;;;;;18.22;83.33;96575.63;5119036;57;20602;-70
2021/07/10 06:38:12;;;;;;;8.20;7.00;;;;;;;18.48;81.11;96576.16;5118701;57;20193;-70
2021/07/10 06:43:14;;;;;;;9.25;6.70;;;;;;;18.61;80.57;96579.97;5118794;57;20660;-70
2021/07/10 06:48:17;;;;;;;8.05;7.10;;;;;;;18.90;79.80;96589.13;5118871;57;20135;-70
2021/07/10 06:53:22;;;;;;;9.43;6.60;;;;;;;18.36;80.46;96583.75;5117279;57;20140;-72
2021/07/10 06:58:25;;;;;;;8.35;7.15;;;;;;;18.84;78.45;96591.19;5116656;57;20136;-71
2021/07/10 07:03:27;;;;;;;7.22;6.35;;;;;;;18.72;80.13;96576.44;5118591;57;20109;-70
2021/07/10 07:08:30;;;;;;;6.82;6.07;;;;;;;19.12;78.91;96583.47;5131879;57;20126;-70
2021/07/10 07:13:32;;;;;;;9.13;6.80;;;;;;;19.34;77.78;96580.63;5137734;58;20482;-70
2021/07/10 07:18:35;;;;;;;7.93;6.50;;;;;;;19.40;79.05;96577.84;5119067;57;20184;-71
2021/07/10 07:23:39;;;;;;;7.90;7.00;;;;;;;19.73;75.88;96574.88;5116943;58;20224;-70
2021/07/10 07:28:42;;;;;;;8.48;5.95;;;;;;;20.30;74.86;96571.28;5117654;57;20118;-70
2021/07/10 07:33:45;;;;;;;7.10;6.38;;;;;;;20.34;74.50;96564.09;5117478;58;20118;-70
2021/07/10 07:38:47;;;;;;;6.25;5.70;;;;;;;20.73;75.70;96563.78;5110467;57;20933;-73
2021/07/10 07:43:50;;;;;;;5.45;4.95;;;;;;;20.72;73.12;96553.81;5116680;58;20885;-72
2021/07/10 07:48:53;;;;;;;6.78;5.35;;;;;;;20.99;71.63;96541.56;5115677;57;20989;-70
2021/07/10 07:53:56;;;;;;;5.68;5.18;;;;;;;20.76;70.09;96529.00;5098476;58;20128;-72
2021/07/10 07:58:58;;;;;;;5.40;4.90;;;;;;;21.94;70.50;96539.19;5116594;57;20574;-73
2021/07/10 08:04:01;;;;;;;5.57;5.07;;;;;;;22.08;65.40;96540.00;5118385;57;20663;-73
2021/07/10 08:09:04;;;;;;;4.90;4.45;;;;;;;23.18;62.06;96540.22;5123650;57;20290;-71
2021/07/10 08:14:07;;;;;;;5.82;4.65;;;;;;;22.84;63.35;96537.25;5111902;57;20647;-71
2021/07/10 08:19:09;;;;;;;4.22;3.83;;;;;;;24.04;60.87;96533.88;5120795;57;20149;-73
2021/07/10 08:24:12;;;;;;;6.63;4.20;;;;;;;24.31;58.95;96526.88;5121359;57;20131;-73
2021/07/10 08:29:14;;;;;;;4.22;3.85;;;;;;;24.26;57.71;96530.56;5106533;57;20136;-72
2021/07/10 08:34:16;;;;;;;4.38;4.05;;;;;;;24.73;57.99;96510.66;5118016;57;20118;-72
2021/07/10 08:39:19;;;;;;;4.88;4.45;;;;;;;25.14;56.31;96518.34;5119092;57;20114;-73
2021/07/10 08:44:23;;;;;;;4.43;3.72;;;;;;;25.44;55.50;96510.09;5118727;57;20158;-73
2021/07/10 08:49:26;;;;;;;5.97;5.38;;;;;;;25.10;54.39;96515.13;5117680;57;20131;-73
2021/07/10 08:54:28;;;;;;;5.00;4.60;;;;;;;25.95;52.24;96507.28;5119428;57;20608;-73
2021/07/10 08:59:31;;;;;;;4.50;4.10;;;;;;;25.97;55.98;96513.16;5115680;57;20145;-73
2021/07/10 09:04:33;;;;;;;4.43;4.00;;;;;;;26.32;53.44;96503.84;5119495;57;20122;-74
2021/07/10 09:09:44;;;;;;;5.05;3.95;;;;;;;26.59;54.68;96495.75;5117211;57;20131;-74
2021/07/10 09:14:46;;;;;;;4.55;4.20;;;;;;;26.42;51.26;96499.13;5118084;57;20250;-74
2021/07/10 09:19:50;;;;;;;5.22;4.30;;;;;;;26.85;52.28;96490.50;5118177;57;20145;-72
2021/07/10 09:24:54;;;;;;;4.32;3.92;;;;;;;27.08;48.33;96479.13;5118722;57;20144;-73
2021/07/10 09:29:56;;;;;;;4.45;4.05;;;;;;;27.05;51.72;96482.34;5118991;57;20127;-73
2021/07/10 09:34:58;;;;;;;6.03;4.40;;;;;;;26.85;51.72;96470.63;5118982;57;20122;-73
2021/07/10 09:40:12;;;;;;;3.90;3.60;;;;;;;26.68;49.75;96466.84;5114185;57;20597;-74
2021/07/10 09:45:17;;;;;;;5.57;3.90;;;;;;;27.50;49.40;96468.09;5114907;57;20126;-73
2021/07/10 09:50:24;;;;;;;4.78;4.32;;;;;;;27.52;50.38;96446.28;5118516;57;20188;-73
2021/07/10 09:55:28;;;;;;;3.70;3.40;;;;;;;27.61;48.78;96447.78;5118753;57;20709;-74
2021/07/10 10:00:31;;;;;;;4.03;3.28;;;;;;;28.20;47.55;96445.25;5119412;57;20136;-73
2021/07/10 10:05:40;;;;;;;3.40;3.20;;;;;;;26.82;49.92;96425.66;5118696;57;20823;-73
2021/07/10 10:10:52;;;;;;;3.83;3.53;;;;;;;26.67;52.01;96423.56;5117182;57;20257;-73
2021/07/10 10:15:55;;;;;;;4.28;3.90;;;;;;;27.66;47.46;96419.16;5117628;57;20118;-74
2021/07/10 10:20:57;;;;;;;3.60;3.33;;;;;;;26.58;51.01;96418.44;5118047;57;20246;-72
2021/07/10 10:26:00;;;;;;;3.40;3.20;;;;;;;28.20;48.39;96409.03;5117340;57;20144;-73
2021/07/10 10:31:04;;;;;;;3.45;3.15;;;;;;;28.41;46.93;96383.88;5118742;57;20113;-74
2021/07/10 10:36:06;;;;;;;3.58;3.28;;;;;;;27.44;48.11;96396.56;5118844;57;20126;-73
2021/07/10 10:41:09;;;;;;;5.80;3.30;;;;;;;27.49;50.18;96384.25;5117098;57;20109;-74
2021/07/10 10:46:19;;;;;;;13.30;4.10;;;;;;;26.70;50.59;96373.47;5118104;57;20690;-73
2021/07/10 10:51:29;;;;;;;6.20;3.50;;;;;;;26.45;49.91;96373.31;5111239;57;20747;-73
2021/07/10 10:56:39;;;;;;;3.30;3.00;;;;;;;27.45;46.28;96361.94;5118978;57;20582;-74
2021/07/10 11:01:41;;;;;;;3.40;3.10;;;;;;;27.19;51.21;96370.91;5118457;57;20127;-74
2021/07/10 11:06:44;;;;;;;3.33;3.10;;;;;;;26.64;48.71;96372.91;5117139;58;20250;-73
2021/07/10 11:11:46;;;;;;;3.97;3.05;;;;;;;28.20;46.18;96357.16;5118561;57;20141;-73
2021/07/10 11:17:04;;;;;;;4.30;3.00;;;;;;;27.49;46.19;96353.03;5116959;58;20742;-73
2021/07/10 11:22:07;;;;;;;2.40;2.30;;;;;;;28.76;45.15;96361.97;5136781;46;20257;-72
2021/07/10 11:27:09;;;;;;;4.40;3.13;;;;;;;28.35;46.51;96340.72;5147452;57;20134;-71
2021/07/10 11:32:12;;;;;;;2.90;2.70;;;;;;;26.95;46.98;96343.19;5151005;57;20141;-71
2021/07/10 11:37:23;;;;;;;3.42;2.42;;;;;;;27.70;44.47;96327.91;5143312;57;20148;-72
2021/07/10 11:42:31;;;;;;;2.38;2.20;;;;;;;27.77;46.22;96318.59;5141794;57;20118;-74
2021/07/10 11:47:38;;;;;;;3.55;2.53;;;;;;;28.86;43.57;96316.53;5145605;57;20804;-72
2021/07/10 11:52:52;;;;;;;3.42;2.65;;;;;;;28.19;43.60;96316.59;5142999;57;20139;-73
2021/07/10 11:57:55;;;;;;;2.35;2.17;;;;;;;28.67;46.56;96308.59;5143888;57;20135;-73
2021/07/10 12:02:58;;;;;;;2.53;2.33;;;;;;;29.03;39.44;96286.00;5147439;57;20112;-76
2021/07/10 12:08:02;;;;;;;2.13;2.00;;;;;;;29.61;39.58;96295.66;5138321;57;20126;-73
2021/07/10 12:13:07;;;;;;;2.63;2.15;;;;;;;28.43;44.60;96276.00;5139161;57;20291;-72
2021/07/10 12:18:11;;;;;;;2.67;2.40;;;;;;;28.13;43.97;96270.63;5138240;57;20206;-74
2021/07/10 12:23:22;;;;;;;2.47;2.30;;;;;;;29.10;43.27;96256.69;5157259;57;20173;-73
2021/07/10 12:28:28;;;;;;;2.30;2.10;;;;;;;27.41;43.31;96252.97;5143975;57;20685;-74
2021/07/10 12:33:41;;;;;;;3.80;1.90;;;;;;;28.95;44.46;96265.41;5153495;57;20707;-72
2021/07/10 12:39:19;;;;;;;2.33;2.13;;;;;;;29.60;42.12;96248.63;5147704;57;20154;-76
2021/07/10 12:44:29;;;;;;;;;;;;;;;27.37;43.05;96252.59;5146435;57;20116;-73
2021/07/10 12:49:41;;;;;;;2.10;1.90;;;;;;;29.03;41.99;96249.00;5158487;57;20451;-74
2021/07/10 12:54:52;;;;;;;2.20;2.10;;;;;;;28.26;40.79;96239.03;5161303;57;20131;-74
2021/07/10 13:00:06;;;;;;;2.33;2.13;;;;;;;28.04;42.81;96242.09;5156282;57;20120;-73
2021/07/10 13:05:30;;;;;;;1.77;1.67;;;;;;;29.95;40.89;96239.91;5146295;57;20658;-73
2021/07/10 13:10:34;;;;;;;3.35;2.10;;;;;;;29.06;39.57;96236.41;5151293;57;20103;-74
2021/07/10 13:15:44;;;;;;;2.42;1.90;;;;;;;29.11;42.44;96241.09;5142201;57;20131;-73
2021/07/10 13:21:02;;;;;;;2.42;2.17;;;;;;;29.62;42.69;96225.97;5143272;57;20977;-73
2021/07/10 13:26:30;;;;;;;1.88;1.77;;;;;;;28.85;42.29;96226.84;5139543;57;20692;-75
2021/07/10 13:31:39;;;;;;;2.45;2.25;;;;;;;29.39;43.42;96216.28;5130704;57;20117;-74
2021/07/10 13:36:45;;;;;;;2.22;2.13;;;;;;;29.19;42.13;96206.13;5151210;57;20107;-74
2021/07/10 13:41:54;;;;;;;2.20;2.10;;;;;;;29.07;43.79;96197.34;5153662;57;20113;-73
2021/07/10 13:47:02;;;;;;;3.05;2.28;;;;;;;28.85;43.75;96184.19;5139419;57;20153;-74
2021/07/10 13:52:05;;;;;;;2.97;2.00;;;;;;;29.02;43.81;96181.28;5131278;57;20122;-73
2021/07/10 13:57:11;;;;;;;3.55;2.08;;;;;;;28.72;43.55;96181.69;5143932;57;20217;-74
2021/07/10 14:02:14;;;;;;;1.85;1.75;;;;;;;29.09;41.66;96163.34;5138633;57;20236;-74
2021/07/10 14:07:16;;;;;;;2.65;2.00;;;;;;;28.13;40.79;96161.88;5138380;57;20125;-73
2021/07/10 14:12:19;;;;;;;2.00;1.85;;;;;;;28.31;41.52;96149.94;5138614;57;20153;-73
2021/07/10 14:17:21;;;;;;;1.95;1.85;;;;;;;28.95;43.48;96148.00;5142163;57;20141;-73
2021/07/10 14:22:23;;;;;;;2.08;1.98;;;;;;;28.78;39.75;96148.06;5142854;57;20161;-73
2021/07/10 14:27:26;;;;;;;2.10;2.00;;;;;;;28.30;42.70;96151.28;5149179;57;20125;-73
2021/07/10 14:32:29;;;;;;;2.10;2.00;;;;;;;28.51;43.44;96156.53;5157601;57;20125;-73
2021/07/10 14:37:31;;;;;;;2.40;2.20;;;;;;;28.74;44.31;96153.41;5153406;57;20148;-74
2021/07/10 14:42:34;;;;;;;2.08;1.98;;;;;;;29.32;41.70;96140.25;5145122;57;20164;-74
2021/07/10 14:47:36;;;;;;;2.10;2.00;;;;;;;28.73;41.81;96141.28;5136849;57;20139;-73
2021/07/10 14:52:40;;;;;;;1.90;1.80;;;;;;;27.48;42.22;96130.09;5137760;57;20117;-72
2021/07/10 14:57:44;;;;;;;2.65;1.80;;;;;;;28.30;44.10;96128.53;5129259;57;20126;-73
2021/07/10 15:02:47;;;;;;;2.58;1.80;;;;;;;28.65;43.56;96122.81;5138016;57;20133;-72
2021/07/10 15:07:50;;;;;;;2.50;2.00;;;;;;;27.73;42.72;96123.06;5146707;57;20689;-72
2021/07/10 15:12:52;;;;;;;1.85;1.75;;;;;;;27.58;43.73;96117.53;5136517;57;20122;-72
2021/07/10 15:17:55;;;;;;;1.90;1.80;;;;;;;27.28;46.72;96114.16;5139614;57;20642;-74
2021/07/10 15:22:57;;;;;;;2.30;2.10;;;;;;;27.54;45.06;96116.44;5140264;57;20131;-74
2021/07/10 15:28:00;;;;;;;2.22;2.10;;;;;;;26.78;47.24;96116.97;5140840;57;20591;-74
2021/07/10 15:33:02;;;;;;;2.10;2.00;;;;;;;25.78;48.53;96102.97;5140639;57;20121;-75
2021/07/10 15:38:06;;;;;;;5.50;2.00;;;;;;;26.23;47.26;96094.34;5140423;57;20583;-75
2021/07/10 15:43:08;;;;;;;3.30;2.20;;;;;;;26.17;47.94;96098.72;5139791;57;20835;-74
2021/07/10 15:48:11;;;;;;;2.20;2.10;;;;;;;25.99;48.62;96092.16;5151267;57;20138;-73
2021/07/10 15:53:13;;;;;;;2.05;1.95;;;;;;;25.95;47.85;96088.19;5161686;57;20124;-77
2021/07/10 15:58:16;;;;;;;2.47;2.30;;;;;;;26.22;49.44;96072.25;5161959;57;20616;-75
2021/07/10 16:03:18;;;;;;;2.28;2.17;;;;;;;26.04;47.88;96079.09;5156695;57;20335;-77
2021/07/10 16:08:21;;;;;;;2.30;2.20;;;;;;;25.59;47.83;96075.09;5156880;57;20134;-78
2021/07/10 16:13:23;;;;;;;2.30;2.10;;;;;;;25.46;48.47;96064.00;5178435;57;20099;-77
2021/07/10 16:18:26;;;;;;;6.47;2.35;;;;;;;25.26;49.37;96055.69;5161777;57;20120;-75
2021/07/10 16:23:28;;;;;;;2.00;1.90;;;;;;;25.25;49.46;96059.81;5159647;57;20125;-76
2021/07/10 16:28:30;;;;;;;2.30;2.20;;;;;;;25.24;48.31;96050.56;5160487;57;20147;-76
2021/07/10 16:33:33;;;;;;;2.50;2.30;;;;;;;25.42;48.31;96054.34;5160922;57;20169;-76
2021/07/10 16:38:36;;;;;;;2.15;2.05;;;;;;;25.65;48.94;96054.34;5159551;57;20116;-75
2021/07/10 16:43:38;;;;;;;2.05;1.95;;;;;;;25.64;48.68;96045.09;5160001;57;20644;-75
2021/07/10 16:48:41;;;;;;;1.90;1.80;;;;;;;25.58;49.53;96048.09;5160145;57;20230;-77
2021/07/10 16:53:43;;;;;;;1.95;1.85;;;;;;;25.22;49.26;96039.09;5160208;57;20654;-77
2021/07/10 16:58:46;;;;;;;2.20;2.10;;;;;;;25.54;48.63;96042.09;5160271;57;20117;-75
2021/07/10 17:03:48;;;;;;;2.58;2.28;;;;;;;25.15;48.88;96044.75;5152368;57;20133;-75
2021/07/10 17:08:51;;;;;;;2.00;1.90;;;;;;;25.57;49.44;96032.47;5160043;57;20125;-77
2021/07/10 17:13:53;;;;;;;2.30;2.20;;;;;;;25.31;48.31;96026.44;5159373;57;20116;-75
2021/07/10 17:18:55;;;;;;;3.33;2.30;;;;;;;25.29;48.45;96023.41;5158564;57;20730;-72
2021/07/10 17:24:00;;;;;;;2.92;2.40;;;;;;;24.74;50.11;96015.50;5159774;57;20573;-74
2021/07/10 17:29:03;;;;;;;3.08;2.25;;;;;;;24.39;51.75;96024.91;5170084;46;20133;-74
2021/07/10 17:34:12;;;;;;;2.20;2.10;;;;;;;24.12;52.04;96018.81;5158880;57;20120;-74
2021/07/10 17:39:16;;;;;;;1.92;1.83;;;;;;;23.92;53.55;96021.72;5159588;57;20147;-74
2021/07/10 17:44:18;;;;;;;2.47;2.28;;;;;;;23.57;55.03;96011.97;5158474;57;20689;-73
2021/07/10 17:49:21;;;;;;;3.00;2.22;;;;;;;23.36;56.29;96017.66;5158571;57;20129;-76
2021/07/10 17:54:24;;;;;;;2.83;2.20;;;;;;;23.40;56.20;96028.63;5159027;57;20125;-73
2021/07/10 17:59:26;;;;;;;2.38;2.10;;;;;;;23.45;58.94;96024.88;5157797;57;20730;-73
2021/07/10 18:04:30;;;;;;;4.30;2.72;;;;;;;23.91;56.05;96011.72;5158714;57;20233;-71
2021/07/10 18:09:32;;;;;;;3.67;2.95;;;;;;;24.46;54.04;96012.09;5158397;57;20129;-72
2021/07/10 18:14:35;;;;;;;2.28;2.17;;;;;;;24.65;53.67;96010.41;5158259;57;20125;-72
2021/07/10 18:19:37;;;;;;;2.60;2.30;;;;;;;24.54;53.87;96001.53;5156128;57;20133;-72
2021/07/10 18:24:39;;;;;;;2.47;2.22;;;;;;;24.58;54.89;96013.25;5156277;57;20129;-72
2021/07/10 18:29:42;;;;;;;2.17;2.05;;;;;;;24.36;52.37;96014.72;5157063;57;20152;-70
2021/07/10 18:34:44;;;;;;;2.40;2.20;;;;;;;23.90;55.71;96016.63;5158275;57;20130;-70
2021/07/10 18:39:47;;;;;;;2.15;2.05;;;;;;;23.41;57.60;96005.50;5151619;57;20661;-73
2021/07/10 18:44:49;;;;;;;1.77;1.67;;;;;;;23.20;59.62;96010.44;5155000;57;20125;-72
2021/07/10 18:49:51;;;;;;;2.08;1.90;;;;;;;23.00;59.96;96005.56;5151606;57;20125;-72
2021/07/10 18:54:53;;;;;;;2.70;2.00;;;;;;;22.67;65.59;96006.44;5157960;57;20604;-72
2021/07/10 18:59:56;;;;;;;2.45;2.25;;;;;;;22.53;70.27;96011.38;5158077;57;20568;-72
2021/07/10 19:04:58;;;;;;;2.47;2.38;;;;;;;22.34;71.88;96012.88;5158120;57;20125;-71
2021/07/10 19:10:00;;;;;;;2.45;2.25;;;;;;;22.02;72.63;96008.25;5157969;57;20130;-72
2021/07/10 19:15:06;;;;;;;2.35;2.25;;;;;;;21.79;74.09;96010.00;5157733;57;20231;-71
2021/07/10 19:20:10;;;;;;;2.65;2.45;;;;;;;21.74;73.91;96016.50;5157977;57;20137;-71
2021/07/10 19:25:15;;;;;;;2.50;2.33;;;;;;;21.49;75.53;96018.03;5157416;57;20120;-72
2021/07/10 19:30:20;;;;;;;2.95;2.65;;;;;;;21.33;75.86;96017.09;5157592;57;20134;-71
2021/07/10 19:35:25;;;;;;;2.80;2.60;;;;;;;21.52;74.34;96013.41;5157735;57;20116;-71
2021/07/10 19:40:29;;;;;;;3.90;2.58;;;;;;;21.35;76.46;96022.91;5157482;57;20116;-71
2021/07/10 19:45:33;;;;;;;2.22;2.13;;;;;;;21.19;76.70;96018.38;5157189;57;20126;-71
2021/07/10 19:50:36;;;;;;;2.42;2.33;;;;;;;21.02;77.40;96012.31;5157781;57;20129;-71
2021/07/10 19:55:39;;;;;;;3.13;2.78;;;;;;;21.03;76.54;96015.88;5157103;57;20112;-72
2021/07/10 20:00:41;;;;;;;4.93;2.85;;;;;;;20.95;75.89;96026.22;5159970;57;20231;-72
2021/07/10 20:05:43;;;;;;;2.55;2.45;;;;;;;20.76;77.50;96036.78;5160028;57;20127;-71
2021/07/10 20:10:46;;;;;;;2.80;2.60;;;;;;;20.70;78.45;96029.22;5160451;57;20138;-72
2021/07/10 20:15:49;;;;;;;3.15;2.70;;;;;;;20.74;78.25;96040.13;5160228;57;20715;-72
2021/07/10 20:20:51;;;;;;;2.70;2.50;;;;;;;20.59;79.21;96035.03;5160466;57;20155;-72
2021/07/10 20:25:54;;;;;;;2.70;2.50;;;;;;;20.50;78.87;96040.28;5158503;57;20129;-72
2021/07/10 20:30:56;;;;;;;2.70;2.50;;;;;;;20.49;79.70;96035.97;5160305;57;20129;-71
2021/07/10 20:36:03;;;;;;;3.58;2.30;;;;;;;20.72;78.72;96026.63;5158654;57;20120;-71
2021/07/10 20:41:06;;;;;;;2.55;2.35;;;;;;;20.55;77.52;96028.97;5159980;57;20581;-72
2021/07/10 20:46:09;;;;;;;4.00;2.63;;;;;;;20.50;76.38;96026.25;5159633;57;20224;-72
2021/07/10 20:51:13;;;;;;;2.78;2.58;;;;;;;20.53;77.31;96020.34;5160349;57;20138;-71
2021/07/10 20:56:15;;;;;;;3.22;2.92;;;;;;;20.16;76.77;96002.78;5159640;57;20124;-71
2021/07/10 21:01:18;;;;;;;3.47;3.03;;;;;;;19.94;78.71;96020.72;5160350;57;20125;-71
2021/07/10 21:06:21;;;;;;;5.25;3.60;;;;;;;20.19;77.09;96041.00;5151729;57;20222;-71
2021/07/10 21:11:24;;;;;;;3.70;3.40;;;;;;;20.25;78.44;96036.09;5158592;57;20758;-71
2021/07/10 21:16:27;;;;;;;4.05;3.65;;;;;;;20.27;79.71;96030.69;5159930;57;20129;-70
2021/07/10 21:21:30;;;;;;;4.65;2.95;;;;;;;20.26;80.67;96041.19;5160104;57;20182;-71
2021/07/10 21:26:36;;;;;;;4.68;3.70;;;;;;;20.34;80.67;96032.88;5159504;57;20138;-71
2021/07/10 21:31:38;;;;;;;5.93;3.05;;;;;;;20.13;82.48;96052.28;5159815;57;20137;-71
2021/07/10 21:36:41;;;;;;;5.53;3.63;;;;;;;19.82;84.46;96036.94;5159481;57;20684;-71
2021/07/10 21:41:43;;;;;;;4.47;4.15;;;;;;;19.64;85.51;96036.91;5157867;57;20125;-71
2021/07/10 21:46:49;;;;;;;3.60;3.15;;;;;;;19.61;83.50;96018.34;5158592;57;20215;-71
2021/07/10 21:51:52;;;;;;;3.60;3.30;;;;;;;19.77;83.60;96028.59;5151294;57;20248;-71
2021/07/10 21:56:54;;;;;;;7.70;3.67;;;;;;;19.68;84.75;96021.31;5159866;57;20142;-71
2021/07/10 22:01:57;;;;;;;4.00;3.70;;;;;;;19.65;85.32;96013.22;5177242;57;20111;-71
2021/07/10 22:07:00;;;;;;;5.40;3.55;;;;;;;19.60;86.77;96031.63;5179025;57;20143;-71
2021/07/10 22:12:03;;;;;;;4.85;3.70;;;;;;;19.33;87.80;96025.06;5159457;57;20728;-71
2021/07/10 22:17:05;;;;;;;4.10;3.55;;;;;;;19.47;87.31;95999.97;5159180;57;20143;-71
2021/07/10 22:22:07;;;;;;;3.47;3.28;;;;;;;19.35;87.02;95996.53;5159025;57;20139;-70
2021/07/10 22:27:10;;;;;;;3.42;3.15;;;;;;;19.01;88.41;95998.94;5158919;57;20164;-71
2021/07/10 22:32:12;;;;;;;7.00;3.20;;;;;;;19.13;88.37;96019.19;5159216;57;20275;-70
2021/07/10 22:37:14;;;;;;;3.50;2.75;;;;;;;18.91;87.17;96006.16;5158829;57;20134;-70
2021/07/10 22:42:17;;;;;;;4.63;3.28;;;;;;;18.94;87.73;96009.97;5159695;57;20129;-71
2021/07/10 22:47:19;;;;;;;3.28;2.83;;;;;;;18.69;87.92;96020.41;5159211;57;20132;-71
2021/07/10 22:52:21;;;;;;;3.05;2.83;;;;;;;18.78;87.99;96025.66;5158872;57;20143;-71
2021/07/10 22:57:24;;;;;;;2.88;2.67;;;;;;;18.63;88.51;96051.22;5158946;57;20125;-71
2021/07/10 23:02:26;;;;;;;3.13;2.88;;;;;;;18.87;87.62;96064.50;5159538;57;20134;-71
2021/07/10 23:07:29;;;;;;;5.40;3.75;;;;;;;19.02;88.18;96073.25;5158756;57;20129;-71
2021/07/10 23:12:31;;;;;;;5.13;3.55;;;;;;;19.03;87.64;96088.03;5158992;57;20630;-71
2021/07/10 23:17:34;;;;;;;6.57;4.03;;;;;;;18.89;89.02;96101.13;5158259;57;20138;-71
2021/07/10 23:22:36;;;;;;;7.45;3.70;;;;;;;19.00;88.01;96103.06;5157856;57;20129;-71
2021/07/10 23:27:39;;;;;;;4.25;3.85;;;;;;;19.04;88.09;96118.28;5158464;57;20121;-71
2021/07/10 23:32:59;;;;;;;4.50;4.10;;;;;;;19.00;88.30;96114.25;5159000;57;20679;-71
2021/07/10 23:38:02;;;;;;;5.47;3.53;;;;;;;19.03;87.81;96149.63;5162007;57;20581;-72
2021/07/10 23:43:05;;;;;;;3.80;3.50;;;;;;;18.94;87.69;96161.94;5161677;57;20124;-71
2021/07/10 23:48:07;;;;;;;2.95;2.75;;;;;;;18.80;85.33;96187.50;5161467;57;20133;-71
2021/07/10 23:53:11;;;;;;;2.22;2.13;;;;;;;18.78;84.54;96202.00;5161436;57;20129;-71